Herzlich willkommen!

Am freundlichen Bodensee-Flugplatz zwischen Schwarzwald, Rhein und Alpen.

Aktuelles

Es liegen keine aktuellen Meldungen vor. Wir freuen uns auf Ihren Besuch!

Live am Platz

Die Bilder unserer Webcams werden alle 5 Minuten aktualisiert.

Sonnenaufgang:

04:31 UTC / 06:31 Lokal

Sonnenuntergang:

18:19 UTC / 20:19 Lokal

METAR (25.08.2019 18:50 UTC):

EDNY 251850Z VRB02KT CAVOK 19/16 Q1020
VFR

TAF (25.08.2019 17:00 UTC):

TAF EDNY 251700Z 2518/2618 04003KT CAVOK PROB30 TEMPO 2603/2607 1500 BCFG BECMG 2609/2611 24005KT BECMG 2616/2618 VRB03KT

Alle Angaben unverbindlich und ohne Gewähr. Zeiten genähert.

Für den Verkehrslandeplatz Konstanz werden keine offiziellen Wetterinformationen ausgegeben. Daher werden zur Orientierung Daten des nahegelegenen Flughafens Friedrichshafen dargestellt.

Flugwetterdaten zur Verfügung gestellt von wippich.aero.